createdAt,value
2018-07-26T00:00:58.117Z,92.47
2018-07-26T00:01:58.117Z,92.08
2018-07-26T00:02:58.112Z,92.57
2018-07-26T00:03:58.113Z,92.57
2018-07-26T00:04:58.113Z,92.47
2018-07-26T00:05:58.117Z,92.08
2018-07-26T00:06:58.109Z,92.28
2018-07-26T00:07:58.109Z,90.35
2018-07-26T00:08:58.108Z,90.64
2018-07-26T00:09:58.108Z,91.60
2018-07-26T00:10:58.104Z,91.60
2018-07-26T00:11:58.107Z,90.83
2018-07-26T00:12:58.111Z,91.51
2018-07-26T00:13:58.110Z,91.03
2018-07-26T00:14:58.101Z,91.41
2018-07-26T00:15:58.102Z,91.31
2018-07-26T00:16:58.100Z,91.51
2018-07-26T00:17:58.101Z,91.41
2018-07-26T00:18:58.100Z,91.51
2018-07-26T00:19:58.096Z,91.51
2018-07-26T00:20:58.096Z,91.31
2018-07-26T00:21:58.094Z,91.13
2018-07-26T00:22:58.094Z,91.41
2018-07-26T00:23:58.092Z,91.31
2018-07-26T00:24:58.091Z,90.97
2018-07-26T00:25:58.092Z,90.83
2018-07-26T00:26:58.093Z,90.93
2018-07-26T00:27:58.091Z,91.17
2018-07-26T00:28:58.091Z,91.07
2018-07-26T00:29:58.087Z,90.88
2018-07-26T00:30:58.085Z,90.69
2018-07-26T00:31:58.083Z,90.88
2018-07-26T00:32:58.083Z,90.88
2018-07-26T00:33:58.084Z,90.88
2018-07-26T00:34:58.093Z,90.69
2018-07-26T00:35:58.073Z,90.20
2018-07-26T00:36:58.078Z,90.97
2018-07-26T00:37:58.079Z,91.07
2018-07-26T00:38:58.079Z,91.70
2018-07-26T00:39:58.075Z,91.65
2018-07-26T00:40:58.073Z,91.55
2018-07-26T00:41:58.076Z,91.36
2018-07-26T00:42:58.072Z,91.84
2018-07-26T00:43:58.710Z,91.89
2018-07-26T00:44:58.073Z,91.89
2018-07-26T00:45:58.071Z,92.38
2018-07-26T00:46:58.069Z,92.66
2018-07-26T00:47:58.070Z,92.43
2018-07-26T00:48:58.068Z,92.95
2018-07-26T00:49:58.066Z,93.10
2018-07-26T00:50:58.065Z,93.29
2018-07-26T00:51:58.069Z,93.87
2018-07-26T00:52:58.065Z,93.96
2018-07-26T00:53:58.065Z,94.35
2018-07-26T00:54:58.058Z,94.35
2018-07-26T00:55:58.062Z,94.83
2018-07-26T00:56:58.062Z,94.92
2018-07-26T00:57:58.056Z,94.73
2018-07-26T00:58:58.055Z,95.21
2018-07-26T00:59:58.073Z,94.88
2018-07-26T01:00:58.054Z,94.88
2018-07-26T01:01:58.066Z,95.17
2018-07-26T01:02:58.053Z,95.55
2018-07-26T01:03:58.050Z,95.55
2018-07-26T01:04:58.049Z,95.65
2018-07-26T01:05:58.049Z,95.45
2018-07-26T01:06:58.044Z,95.55
2018-07-26T01:07:58.045Z,95.45
2018-07-26T01:08:58.060Z,95.07
2018-07-26T01:09:58.044Z,95.55
2018-07-26T01:10:58.044Z,94.68
2018-07-26T01:11:58.040Z,95.55
2018-07-26T01:12:58.037Z,95.55
2018-07-26T01:13:58.034Z,95.36
2018-07-26T01:14:58.033Z,94.98
2018-07-26T01:15:58.031Z,94.98
2018-07-26T01:16:58.035Z,94.78
2018-07-26T01:17:58.030Z,95.55
2018-07-26T01:18:58.030Z,95.55
2018-07-26T01:19:58.031Z,95.65
2018-07-26T01:20:58.027Z,95.45
2018-07-26T01:21:58.025Z,95.36
2018-07-26T01:22:58.024Z,95.45
2018-07-26T01:23:58.024Z,94.68
2018-07-26T01:24:58.021Z,95.36
2018-07-26T01:25:58.022Z,94.59
2018-07-26T01:26:58.015Z,94.40
2018-07-26T01:27:58.015Z,94.98
2018-07-26T01:28:58.015Z,95.26
2018-07-26T01:29:58.014Z,94.98
2018-07-26T01:30:58.009Z,95.17
2018-07-26T02:04:24.954Z,96.66
2018-07-26T02:05:24.931Z,96.56
2018-07-26T02:07:17.859Z,96.17
2018-07-26T02:08:17.825Z,96.85
2018-07-26T02:10:10.760Z,96.37
2018-07-26T02:11:10.744Z,95.98
2018-07-26T02:13:03.670Z,96.56
2018-07-26T02:14:03.659Z,96.75
2018-07-26T02:15:56.570Z,96.85
2018-07-26T02:16:56.549Z,97.24
2018-07-26T02:18:49.457Z,97.09
2018-07-26T02:19:49.446Z,97.66
2018-07-26T02:21:42.365Z,97.86
2018-07-26T02:22:42.332Z,97.96
2018-07-26T02:24:35.301Z,98.34
2018-07-26T02:25:35.284Z,98.38
2018-07-26T02:27:28.225Z,98.29
2018-07-26T02:28:28.210Z,98.58
2018-07-26T02:30:21.129Z,99.10
2018-07-26T02:31:21.111Z,98.77
2018-07-26T02:33:14.029Z,98.48
2018-07-26T02:34:14.023Z,99.34
2018-07-26T02:36:06.919Z,99.49
2018-07-26T02:37:06.894Z,99.34
2018-07-26T02:38:59.831Z,99.30
2018-07-26T02:39:59.817Z,98.43
2018-07-26T02:41:52.731Z,98.63
2018-07-26T02:42:52.715Z,98.72
2018-07-26T02:44:45.634Z,98.72
2018-07-26T02:45:45.621Z,98.82
2018-07-26T02:47:38.552Z,99.01
2018-07-26T02:48:38.516Z,99.20
2018-07-26T02:50:31.447Z,98.91
2018-07-26T02:51:31.426Z,98.82
2018-07-26T02:53:24.326Z,99.10
2018-07-26T02:54:24.314Z,98.82
2018-07-26T02:56:17.239Z,98.91
2018-07-26T02:57:17.219Z,99.01
2018-07-26T02:59:10.148Z,98.63
2018-07-26T03:00:10.118Z,98.82
2018-07-26T03:02:03.057Z,99.01
2018-07-26T03:03:03.037Z,98.82
2018-07-26T03:04:55.937Z,99.44
2018-07-26T03:05:55.929Z,98.82
2018-07-26T03:07:48.903Z,99.49
2018-07-26T03:08:48.883Z,99.49
2018-07-26T03:10:41.782Z,99.99
2018-07-26T03:11:41.766Z,99.97
2018-07-26T03:13:34.746Z,99.58
2018-07-26T03:14:34.737Z,99.58
2018-07-26T03:16:27.656Z,99.40
2018-07-26T03:17:27.637Z,99.49
2018-07-26T03:19:20.591Z,99.30
2018-07-26T03:20:20.554Z,99.20
2018-07-26T03:22:13.484Z,99.06
2018-07-26T03:23:13.461Z,99.58
2018-07-26T03:25:06.362Z,99.20
2018-07-26T03:26:06.351Z,99.54
2018-07-26T03:27:59.285Z,99.30
2018-07-26T03:28:59.264Z,99.44
2018-07-26T03:30:52.203Z,99.54
2018-07-26T03:31:52.179Z,99.40
2018-07-26T03:33:45.067Z,99.40
2018-07-26T03:34:45.060Z,99.40
2018-07-26T03:36:37.963Z,99.87
2018-07-26T03:37:37.943Z,99.97
2018-07-26T03:39:30.880Z,99.97
2018-07-26T03:40:30.867Z,99.58
2018-07-26T03:42:23.826Z,99.58
2018-07-26T03:43:23.792Z,99.68
2018-07-26T03:45:16.701Z,99.58
2018-07-26T03:46:16.695Z,99.10
2018-07-26T03:48:09.612Z,99.40
2018-07-26T03:49:09.597Z,98.82
2018-07-26T03:51:02.511Z,98.53
2018-07-26T03:52:02.483Z,98.72
2018-07-26T03:53:55.414Z,99.10
2018-07-26T03:54:55.396Z,98.82
2018-07-26T03:56:48.329Z,98.63
2018-07-26T03:57:48.343Z,99.30
2018-07-26T03:59:41.219Z,99.49
2018-07-26T04:00:41.208Z,99.34
2018-07-26T04:02:34.110Z,99.78
2018-07-26T04:03:34.093Z,99.15
2018-07-26T04:05:27.027Z,99.10
2018-07-26T04:06:26.989Z,99.40
2018-07-26T04:08:19.937Z,98.72
2018-07-26T04:09:19.913Z,98.14
2018-07-26T04:11:12.890Z,99.30
2018-07-26T04:12:12.875Z,99.20
2018-07-26T04:14:05.922Z,99.40
2018-07-26T04:15:05.839Z,99.30
2018-07-26T04:16:58.746Z,99.40
2018-07-26T04:17:58.727Z,99.20
2018-07-26T04:19:51.695Z,99.68
2018-07-26T04:20:51.683Z,99.01
2018-07-26T04:22:44.579Z,99.01
2018-07-26T04:23:44.567Z,99.20
2018-07-26T04:25:37.511Z,98.39
2018-07-26T04:26:37.502Z,99.15
2018-07-26T04:28:30.476Z,98.39
2018-07-26T04:29:30.436Z,98.72
2018-07-26T04:31:23.372Z,97.96
2018-07-26T04:32:23.363Z,97.38
2018-07-26T04:34:16.269Z,96.70
2018-07-26T04:35:16.250Z,96.94
2018-07-26T04:37:09.164Z,96.85
2018-07-26T04:38:09.145Z,96.85
2018-07-26T04:40:02.065Z,96.47
2018-07-26T04:41:02.049Z,96.75
2018-07-26T04:42:54.992Z,96.37
2018-07-26T04:43:54.956Z,96.17
2018-07-26T04:45:47.933Z,96.22
2018-07-26T04:46:47.925Z,96.51
2018-07-26T04:48:40.883Z,96.56
2018-07-26T04:49:40.865Z,96.32
2018-07-26T04:51:33.829Z,95.65
2018-07-26T04:52:33.821Z,96.22
2018-07-26T04:54:26.817Z,96.22
2018-07-26T04:55:26.795Z,95.94
2018-07-26T04:57:19.767Z,95.74
2018-07-26T04:58:19.721Z,95.65
2018-07-26T05:00:12.635Z,95.55
2018-07-26T05:01:12.630Z,95.26
2018-07-26T05:03:05.536Z,95.31
2018-07-26T05:04:05.517Z,95.31
2018-07-26T05:05:58.423Z,95.31
2018-07-26T05:06:58.416Z,94.92
2018-07-26T05:08:51.347Z,95.02
2018-07-26T05:09:51.328Z,94.54
2018-07-26T05:11:44.286Z,94.49
2018-07-26T05:12:44.271Z,94.87
2018-07-26T05:14:37.182Z,93.14
2018-07-26T05:15:37.164Z,93.66
2018-07-26T05:17:30.076Z,93.09
2018-07-26T05:18:30.081Z,93.96
2018-07-26T05:20:22.985Z,92.90
2018-07-26T05:21:22.974Z,92.51
2018-07-26T05:23:16.603Z,92.90
2018-07-26T05:24:16.592Z,92.51
2018-07-26T05:26:09.974Z,92.17
2018-07-26T05:27:09.490Z,92.51
2018-07-26T05:29:02.395Z,91.98
2018-07-26T05:30:02.387Z,92.08
2018-07-26T05:31:55.282Z,93.13
2018-07-26T05:32:55.272Z,91.11
2018-07-26T05:34:48.197Z,92.56
2018-07-26T05:35:48.175Z,90.96
2018-07-26T05:37:41.157Z,91.54
2018-07-26T05:38:41.134Z,90.67
2018-07-26T05:40:34.244Z,89.81
2018-07-26T05:41:34.231Z,90.77
2018-07-26T05:43:27.203Z,90.38
2018-07-26T05:44:27.183Z,89.75
2018-07-26T05:46:20.194Z,89.47
2018-07-26T05:47:20.190Z,89.85
2018-07-26T05:49:13.143Z,89.65
2018-07-26T05:50:13.130Z,86.86
2018-07-26T05:51:13.127Z,88.45
2018-07-26T05:52:13.135Z,87.87
2018-07-26T05:53:13.181Z,88.06
2018-07-26T05:54:13.133Z,86.80
2018-07-26T05:55:13.132Z,86.80
2018-07-26T05:56:13.136Z,86.61
2018-07-26T05:57:13.136Z,87.00
2018-07-26T05:58:13.136Z,86.22
2018-07-26T05:59:13.142Z,85.36
2018-07-26T06:00:13.154Z,85.64
2018-07-26T06:01:13.158Z,84.88
2018-07-26T06:02:13.144Z,85.11
2018-07-26T06:03:13.146Z,84.82
2018-07-26T06:04:13.148Z,85.49
2018-07-26T06:05:13.152Z,83.75
2018-07-26T06:06:13.150Z,85.11
2018-07-26T06:07:13.157Z,85.59
2018-07-26T06:08:13.160Z,84.91
2018-07-26T06:09:13.163Z,86.31
2018-07-26T06:10:13.163Z,82.60
2018-07-26T06:11:13.163Z,82.69
2018-07-26T06:12:13.166Z,83.99
2018-07-26T06:13:13.169Z,85.35
2018-07-26T06:14:13.170Z,84.09
2018-07-26T06:15:13.170Z,82.25
2018-07-26T06:16:13.172Z,82.25
2018-07-26T06:17:13.196Z,82.64
2018-07-26T06:18:13.179Z,82.73
2018-07-26T06:19:13.184Z,82.97
2018-07-26T06:20:13.183Z,82.20
2018-07-26T06:21:13.187Z,82.58
2018-07-26T06:22:13.195Z,79.97
2018-07-26T06:23:13.190Z,79.20
2018-07-26T06:24:13.194Z,79.68
2018-07-26T06:25:13.206Z,80.07
2018-07-26T06:26:13.197Z,78.33
2018-07-26T06:27:13.205Z,80.46
2018-07-26T06:28:13.260Z,80.07
2018-07-26T06:29:13.207Z,78.66
2018-07-26T06:30:13.207Z,78.66
2018-07-26T06:31:13.213Z,77.59
2018-07-26T06:32:13.216Z,76.82
2018-07-26T06:33:13.216Z,76.08
2018-07-26T06:34:13.223Z,76.18
2018-07-26T06:35:13.224Z,77.14
2018-07-26T06:36:13.226Z,75.15
2018-07-26T06:37:13.231Z,73.31
2018-07-26T06:38:13.236Z,73.75
2018-07-26T06:39:13.238Z,73.57
2018-07-26T06:40:13.238Z,74.63
2018-07-26T06:41:13.244Z,75.17
2018-07-26T06:42:13.248Z,76.18
2018-07-26T06:43:13.249Z,76.46
2018-07-26T06:44:13.249Z,75.50
2018-07-26T06:45:13.261Z,75.92
2018-07-26T06:46:13.261Z,74.47
2018-07-26T06:47:13.260Z,75.63
2018-07-26T06:48:13.266Z,72.18
2018-07-26T06:49:13.270Z,71.50
2018-07-26T06:50:13.273Z,72.80
2018-07-26T06:51:13.277Z,70.05
2018-07-26T06:52:13.282Z,69.12
2018-07-26T06:53:13.281Z,70.83
2018-07-26T06:54:13.289Z,71.54
2018-07-26T06:55:13.289Z,71.54
2018-07-26T06:56:13.293Z,71.64
2018-07-26T06:57:13.296Z,70.61
2018-07-26T06:58:13.313Z,69.50
2018-07-26T06:59:13.302Z,69.85
2018-07-26T07:00:13.308Z,72.51
2018-07-26T07:01:13.313Z,70.61
2018-07-26T07:02:13.317Z,68.28
2018-07-26T07:03:13.321Z,67.50
2018-07-26T07:04:13.321Z,68.86
2018-07-26T07:05:13.327Z,68.76
2018-07-26T07:06:13.334Z,69.83
2018-07-26T07:07:13.337Z,69.67
2018-07-26T07:08:13.341Z,68.89
2018-07-26T07:09:13.345Z,68.54
2018-07-26T07:10:13.481Z,69.86
2018-07-26T07:11:13.352Z,66.50
2018-07-26T07:12:13.355Z,67.02
2018-07-26T07:13:13.359Z,68.25
2018-07-26T07:14:13.364Z,64.81
2018-07-26T07:15:13.370Z,66.92
2018-07-26T07:16:13.372Z,65.75
2018-07-26T07:17:13.374Z,64.36
2018-07-26T07:18:13.382Z,63.62
2018-07-26T07:19:13.390Z,64.42
2018-07-26T07:20:13.389Z,62.41
2018-07-26T07:21:13.401Z,60.36
2018-07-26T07:22:13.404Z,59.69
2018-07-26T07:23:13.412Z,61.24
2018-07-26T07:24:13.420Z,60.36
2018-07-26T07:25:13.428Z,59.81
2018-07-26T07:26:13.436Z,59.91
2018-07-26T07:27:13.443Z,60.20
2018-07-26T07:28:13.458Z,59.66
2018-07-26T07:29:13.471Z,60.70
2018-07-26T07:30:13.480Z,61.70
2018-07-26T07:31:13.485Z,61.51
2018-07-26T07:32:13.498Z,60.75
2018-07-26T07:33:13.530Z,60.82
2018-07-26T07:34:13.521Z,60.86
2018-07-26T07:35:13.534Z,61.02
2018-07-26T07:36:13.543Z,58.39
2018-07-26T07:37:13.556Z,57.28
2018-07-26T07:38:13.573Z,59.33
2018-07-26T07:39:13.587Z,58.28
2018-07-26T07:40:13.594Z,57.89
2018-07-26T07:41:13.609Z,56.41
2018-07-26T07:42:13.620Z,55.32
2018-07-26T07:43:13.637Z,55.51
2018-07-26T07:44:13.647Z,57.56
2018-07-26T07:45:13.661Z,56.29
2018-07-26T07:46:13.679Z,54.85
2018-07-26T07:47:13.699Z,56.51
2018-07-26T07:48:13.701Z,58.50
2018-07-26T07:49:13.719Z,57.10
2018-07-26T07:50:13.731Z,55.08
2018-07-26T07:51:13.743Z,54.25
2018-07-26T07:52:13.759Z,54.57
2018-07-26T07:53:13.778Z,51.49
2018-07-26T07:54:13.796Z,50.76
2018-07-26T07:55:13.806Z,51.07
2018-07-26T07:56:13.820Z,51.00
2018-07-26T07:57:13.868Z,52.88
2018-07-26T07:58:13.854Z,55.08
2018-07-26T07:59:13.866Z,55.37
2018-07-26T08:00:13.882Z,55.51
2018-07-26T08:01:13.896Z,56.95
2018-07-26T08:02:13.913Z,56.25
2018-07-26T08:03:13.932Z,55.40
2018-07-26T08:04:13.950Z,55.66
2018-07-26T08:05:13.970Z,57.62
2018-07-26T08:06:13.975Z,56.08
2018-07-26T08:07:13.993Z,56.74
2018-07-26T08:08:14.010Z,56.35
2018-07-26T08:09:14.024Z,57.09
2018-07-26T08:10:14.045Z,57.29
2018-07-26T08:11:14.091Z,58.44
2018-07-26T08:12:14.078Z,58.53
2018-07-26T08:13:14.093Z,58.34
2018-07-26T08:14:14.111Z,59.34
2018-07-26T08:15:14.146Z,58.95
2018-07-26T08:16:14.142Z,57.62
2018-07-26T08:17:14.159Z,58.86
2018-07-26T08:18:14.173Z,59.47
2018-07-26T08:19:14.188Z,58.50
2018-07-26T08:20:14.209Z,55.98
2018-07-26T08:21:14.227Z,55.69
2018-07-26T08:22:14.249Z,55.52
2018-07-26T08:23:14.251Z,55.76
2018-07-26T08:24:14.269Z,56.25
2018-07-26T08:25:14.291Z,55.83
2018-07-26T08:26:14.308Z,56.32
2018-07-26T08:27:14.329Z,56.93
2018-07-26T08:28:14.340Z,55.40
2018-07-26T08:29:14.361Z,54.98
2018-07-26T08:30:14.382Z,55.51
2018-07-26T08:31:14.393Z,54.71
2018-07-26T08:32:14.409Z,53.56
2018-07-26T08:33:14.429Z,52.42
2018-07-26T08:34:14.445Z,51.42
2018-07-26T08:35:14.496Z,49.99
2018-07-26T08:36:14.483Z,54.94
2018-07-26T08:37:14.496Z,52.56
2018-07-26T08:38:14.513Z,52.17
2018-07-26T08:39:14.536Z,52.54
2018-07-26T08:40:14.549Z,53.47
2018-07-26T08:41:14.577Z,54.60
2018-07-26T08:42:14.582Z,50.54
2018-07-26T08:43:14.598Z,52.30
2018-07-26T08:44:14.621Z,50.68
2018-07-26T08:45:14.638Z,51.88
2018-07-26T08:46:14.657Z,52.37
2018-07-26T08:47:14.674Z,52.17
2018-07-26T08:48:14.717Z,52.44
2018-07-26T08:49:14.710Z,50.95
2018-07-26T08:50:14.728Z,51.88
2018-07-26T08:51:14.748Z,50.02
2018-07-26T08:52:14.838Z,50.78
2018-07-26T08:53:14.781Z,50.32
2018-07-26T08:54:14.819Z,52.29
2018-07-26T08:55:14.819Z,54.30
2018-07-26T08:56:14.838Z,53.16
2018-07-26T08:57:14.857Z,52.05
2018-07-26T08:58:14.876Z,51.76
2018-07-26T08:59:14.893Z,51.29
2018-07-26T09:00:14.913Z,51.34
2018-07-26T09:01:15.013Z,53.59
2018-07-26T09:02:14.949Z,53.23
2018-07-26T09:03:14.968Z,51.93
2018-07-26T09:04:15.109Z,50.59
2018-07-26T09:05:15.007Z,51.00
2018-07-26T09:06:15.026Z,51.76
2018-07-26T09:07:15.044Z,52.91
2018-07-26T09:08:15.063Z,52.98
2018-07-26T09:09:15.082Z,51.56
2018-07-26T09:10:15.103Z,51.44
2018-07-26T09:11:15.124Z,50.93
2018-07-26T09:12:15.142Z,50.02
2018-07-26T09:13:15.162Z,47.67
2018-07-26T09:14:15.182Z,48.77
2018-07-26T09:15:15.202Z,46.91
2018-07-26T09:16:15.228Z,48.74
2018-07-26T09:17:15.262Z,48.52
2018-07-26T09:18:15.267Z,48.11
2018-07-26T09:19:15.282Z,48.33
2018-07-26T09:20:15.304Z,48.60
2018-07-26T09:21:15.330Z,47.22
2018-07-26T09:22:15.346Z,47.03
2018-07-26T09:23:15.370Z,47.49
2018-07-26T09:24:15.388Z,46.63
2018-07-26T09:25:15.400Z,47.77
2018-07-26T09:26:15.435Z,47.96
2018-07-26T09:27:15.476Z,47.47
2018-07-26T09:28:15.474Z,49.87
2018-07-26T09:29:15.497Z,49.73
2018-07-26T09:30:15.520Z,51.07
2018-07-26T09:31:15.533Z,49.97
2018-07-26T09:32:15.552Z,50.90
2018-07-26T09:33:15.592Z,49.11
2018-07-26T09:34:15.593Z,48.00
2018-07-26T09:35:15.617Z,47.58
2018-07-26T09:36:15.641Z,49.07
2018-07-26T09:37:15.656Z,52.35
2018-07-26T09:38:15.677Z,50.98
2018-07-26T09:39:15.703Z,49.82
2018-07-26T09:40:15.714Z,49.26
2018-07-26T09:41:15.764Z,47.17
2018-07-26T09:42:15.759Z,46.60
2018-07-26T09:43:15.877Z,48.74
2018-07-26T09:44:15.797Z,49.75
2018-07-26T09:45:15.820Z,51.07
2018-07-26T09:46:15.837Z,49.46
2018-07-26T09:47:15.892Z,49.60
2018-07-26T09:48:15.876Z,48.25
2018-07-26T09:49:15.895Z,47.10
2018-07-26T09:50:15.914Z,46.34
2018-07-26T09:51:15.933Z,45.87
2018-07-26T09:52:15.954Z,45.02
2018-07-26T09:53:15.972Z,45.37
2018-07-26T09:54:16.003Z,44.70
2018-07-26T09:55:16.019Z,44.26
2018-07-26T09:56:16.033Z,43.80
2018-07-26T09:57:16.053Z,44.27
2018-07-26T09:58:16.077Z,45.51
2018-07-26T09:59:16.095Z,45.88
2018-07-26T10:00:16.170Z,45.95
2018-07-26T10:01:16.136Z,45.68
2018-07-26T10:02:16.158Z,45.09
2018-07-26T10:03:16.173Z,43.53
2018-07-26T10:04:16.192Z,43.04
2018-07-26T10:05:16.210Z,43.80
2018-07-26T10:06:16.233Z,46.77
2018-07-26T10:07:16.250Z,47.63
2018-07-26T10:08:16.269Z,48.58
2018-07-26T10:09:16.286Z,48.41
2018-07-26T10:10:16.308Z,48.44
2018-07-26T10:11:16.325Z,49.56
2018-07-26T10:12:16.347Z,51.04
2018-07-26T10:13:16.363Z,50.65
2018-07-26T10:14:16.384Z,49.95
2018-07-26T10:15:16.394Z,48.31
2018-07-26T10:16:16.409Z,46.59
2018-07-26T10:17:16.448Z,45.86
2018-07-26T10:18:16.442Z,45.04
2018-07-26T10:19:16.456Z,44.12
2018-07-26T10:20:16.484Z,44.88
2018-07-26T10:21:16.505Z,45.00
2018-07-26T10:22:16.515Z,46.28
2018-07-26T10:23:16.524Z,45.93
2018-07-26T10:24:16.542Z,44.85
2018-07-26T10:25:16.560Z,44.93
2018-07-26T10:26:16.576Z,44.95
2018-07-26T10:27:16.597Z,44.85
2018-07-26T10:28:16.610Z,46.23
2018-07-26T10:29:16.634Z,45.44
2018-07-26T10:30:16.648Z,47.50
2018-07-26T10:31:16.701Z,45.64
2018-07-26T10:32:16.684Z,46.91
2018-07-26T10:33:16.705Z,45.17
2018-07-26T10:34:16.715Z,44.88
2018-07-26T10:35:16.735Z,45.27
2018-07-26T10:36:16.773Z,45.19
2018-07-26T10:37:16.773Z,43.90
2018-07-26T10:38:16.797Z,44.66
2018-07-26T10:39:16.805Z,45.47
2018-07-26T10:40:16.827Z,45.66
2018-07-26T10:41:16.845Z,43.76
2018-07-26T10:42:16.867Z,43.46
2018-07-26T10:43:16.877Z,43.92
2018-07-26T10:44:16.895Z,43.26
2018-07-26T10:45:16.930Z,43.66
2018-07-26T10:46:16.935Z,42.02
2018-07-26T10:47:16.951Z,42.57
2018-07-26T10:48:16.969Z,43.13
2018-07-26T10:49:16.988Z,43.99
2018-07-26T10:50:17.010Z,44.21
2018-07-26T10:51:17.028Z,42.41
2018-07-26T10:52:17.045Z,42.98
2018-07-26T10:53:17.063Z,45.02
2018-07-26T10:54:17.073Z,42.82
2018-07-26T10:55:17.102Z,43.72
2018-07-26T10:56:17.117Z,42.45
2018-07-26T10:57:17.127Z,44.73
2018-07-26T10:58:17.175Z,43.99
2018-07-26T10:59:17.189Z,43.85
2018-07-26T11:00:17.241Z,44.56
2018-07-26T11:01:17.212Z,45.83
2018-07-26T11:02:17.249Z,43.80
2018-07-26T11:03:17.250Z,44.85
2018-07-26T11:04:17.268Z,45.09
2018-07-26T11:05:17.285Z,44.12
2018-07-26T11:06:17.294Z,43.72
2018-07-26T11:07:17.323Z,43.43
2018-07-26T11:08:17.336Z,43.56
2018-07-26T11:09:17.360Z,43.98
2018-07-26T11:10:17.378Z,45.20
2018-07-26T11:11:17.395Z,45.07
2018-07-26T11:12:17.416Z,44.09
2018-07-26T11:13:17.433Z,42.97
2018-07-26T11:14:17.454Z,43.60
2018-07-26T11:15:17.521Z,41.88
2018-07-26T11:16:17.489Z,41.98
2018-07-26T11:17:17.507Z,40.11
2018-07-26T11:18:17.524Z,41.45
2018-07-26T11:19:17.540Z,42.35
2018-07-26T11:20:17.559Z,41.60
2018-07-26T11:21:17.577Z,44.56
2018-07-26T11:22:17.598Z,42.72
2018-07-26T11:23:17.623Z,42.50
2018-07-26T11:24:17.685Z,43.56
2018-07-26T11:25:17.649Z,43.54
2018-07-26T11:26:17.669Z,44.07
2018-07-26T11:27:17.686Z,43.37
2018-07-26T11:28:17.705Z,43.37
2018-07-26T11:29:17.715Z,42.68
2018-07-26T11:30:17.742Z,44.24
2018-07-26T11:31:17.763Z,47.41
2018-07-26T11:32:17.809Z,45.92
2018-07-26T11:33:17.796Z,46.08
2018-07-26T11:34:17.810Z,44.95
2018-07-26T11:35:17.846Z,43.88
2018-07-26T11:36:17.843Z,42.33
2018-07-26T11:37:17.860Z,43.58
2018-07-26T11:38:17.876Z,44.24
2018-07-26T11:39:17.890Z,43.95
2018-07-26T11:40:17.909Z,43.85
2018-07-26T11:41:17.988Z,44.05
2018-07-26T11:42:17.945Z,43.73
2018-07-26T11:43:17.959Z,45.79
2018-07-26T11:44:17.974Z,45.03
2018-07-26T11:45:17.997Z,42.84
2018-07-26T11:46:18.011Z,43.52
2018-07-26T11:47:18.024Z,44.41
2018-07-26T11:48:18.046Z,42.76
2018-07-26T11:49:18.063Z,43.70
2018-07-26T11:50:18.084Z,43.43
2018-07-26T11:51:18.107Z,43.90
2018-07-26T11:52:18.115Z,44.51
2018-07-26T11:53:18.136Z,42.68
2018-07-26T11:54:18.150Z,43.76
2018-07-26T11:55:18.166Z,45.37
2018-07-26T11:56:18.197Z,43.60
2018-07-26T11:57:18.206Z,44.09
2018-07-26T11:58:18.214Z,43.27
2018-07-26T11:59:18.225Z,43.63
2018-07-26T12:00:18.253Z,45.69
2018-07-26T12:01:18.269Z,45.73
2018-07-26T12:02:18.298Z,43.46
2018-07-26T12:03:18.305Z,43.37
2018-07-26T12:04:18.325Z,44.34
2018-07-26T12:05:18.356Z,42.85
2018-07-26T12:06:18.359Z,43.76
2018-07-26T12:07:18.372Z,45.01
2018-07-26T12:08:18.437Z,45.34
2018-07-26T12:09:18.399Z,45.34
2018-07-26T12:10:18.426Z,46.18
2018-07-26T12:11:18.442Z,45.52
2018-07-26T12:12:18.461Z,45.75
2018-07-26T12:13:18.476Z,46.78
2018-07-26T12:14:18.524Z,47.09
2018-07-26T12:15:18.516Z,47.21
2018-07-26T12:16:18.530Z,45.67
2018-07-26T12:17:18.562Z,43.98
2018-07-26T12:18:18.570Z,43.99
2018-07-26T12:19:18.575Z,43.33
2018-07-26T12:20:18.635Z,42.74
2018-07-26T12:21:18.611Z,41.61
2018-07-26T12:22:18.640Z,42.39
2018-07-26T12:23:18.642Z,42.35
2018-07-26T12:24:18.660Z,44.78
2018-07-26T12:25:18.677Z,42.57
2018-07-26T12:26:18.696Z,41.66
2018-07-26T12:27:18.734Z,41.47
2018-07-26T12:28:18.766Z,44.29
2018-07-26T12:29:18.743Z,44.32
2018-07-26T12:30:18.757Z,45.81
2018-07-26T12:31:18.780Z,45.83
2018-07-26T12:32:18.792Z,43.76
2018-07-26T12:33:18.811Z,44.96
2018-07-26T12:34:18.825Z,47.09
2018-07-26T12:35:18.841Z,46.70
2018-07-26T12:36:18.865Z,46.85
2018-07-26T12:37:18.873Z,46.44
2018-07-26T12:38:18.889Z,47.61
2018-07-26T12:39:18.905Z,46.80
2018-07-26T12:40:18.926Z,46.51
2018-07-26T12:41:18.936Z,47.51
2018-07-26T12:42:18.944Z,48.07
2018-07-26T12:43:18.967Z,48.36
2018-07-26T12:44:18.987Z,48.46
2018-07-26T12:45:18.999Z,48.56
2018-07-26T12:46:19.010Z,47.78
2018-07-26T12:47:19.067Z,49.46
2018-07-26T12:48:19.035Z,48.39
2018-07-26T12:49:19.047Z,47.41
2018-07-26T12:50:19.058Z,48.22
2018-07-26T12:51:19.067Z,48.71
2018-07-26T12:52:19.076Z,48.80
2018-07-26T12:53:19.104Z,48.68
2018-07-26T12:54:19.099Z,49.93
2018-07-26T12:55:19.107Z,50.21
2018-07-26T12:56:19.112Z,49.93
2018-07-26T12:57:19.125Z,50.60
2018-07-26T12:58:19.133Z,50.02
2018-07-26T12:59:19.141Z,51.85
2018-07-26T13:00:19.148Z,51.29
2018-07-26T13:01:19.158Z,50.09
2018-07-26T13:02:19.163Z,50.68
2018-07-26T13:03:19.170Z,50.38
2018-07-26T13:04:19.179Z,51.56
2018-07-26T13:05:19.188Z,49.90
2018-07-26T13:06:19.194Z,49.90
2018-07-26T13:07:19.201Z,48.80
2018-07-26T13:08:19.201Z,50.68
2018-07-26T13:09:19.217Z,51.29
2018-07-26T13:10:19.221Z,50.80
2018-07-26T13:11:19.228Z,50.80
2018-07-26T13:12:19.294Z,49.93
2018-07-26T13:13:19.242Z,48.44
2018-07-26T13:14:19.250Z,50.87
2018-07-26T13:15:19.247Z,49.80
2018-07-26T13:16:19.262Z,49.71
2018-07-26T13:17:19.263Z,49.61
2018-07-26T13:18:19.272Z,48.63
2018-07-26T13:19:19.276Z,47.85
2018-07-26T13:20:19.285Z,48.73
2018-07-26T13:21:19.292Z,49.41
2018-07-26T13:22:19.296Z,48.75
2018-07-26T13:23:19.304Z,47.58
2018-07-26T13:24:19.308Z,48.66
2018-07-26T13:25:19.316Z,48.07
2018-07-26T13:26:19.327Z,49.54
2018-07-26T13:27:19.367Z,48.05
2018-07-26T13:28:19.330Z,48.17
2018-07-26T13:29:19.343Z,47.49
2018-07-26T13:30:19.342Z,48.24
2018-07-26T13:31:19.347Z,47.19
2018-07-26T13:32:19.352Z,47.36
2018-07-26T13:33:19.361Z,48.24
2018-07-26T13:34:19.382Z,49.44
2018-07-26T13:35:19.369Z,48.88
2018-07-26T13:36:19.379Z,49.83
2018-07-26T13:37:19.383Z,48.49
2018-07-26T13:38:19.389Z,47.68
2018-07-26T13:39:19.397Z,47.09
2018-07-26T13:40:19.472Z,46.88
2018-07-26T13:41:19.421Z,47.95
2018-07-26T13:42:19.414Z,46.97
2018-07-26T13:43:19.416Z,46.78
2018-07-26T13:44:19.423Z,46.97
2018-07-26T13:45:19.426Z,45.51
2018-07-26T13:46:19.458Z,44.42
2018-07-26T13:47:19.437Z,43.95
2018-07-26T13:48:19.443Z,42.76
2018-07-26T13:49:19.449Z,42.86
2018-07-26T13:50:19.454Z,44.52
2018-07-26T13:51:19.458Z,46.76
2018-07-26T13:52:19.509Z,46.37
2018-07-26T13:53:19.471Z,45.78
2018-07-26T13:54:19.472Z,45.88
2018-07-26T13:55:19.486Z,46.69
2018-07-26T13:56:19.490Z,44.85
2018-07-26T13:57:19.490Z,47.17
2018-07-26T13:58:19.550Z,48.46
2018-07-26T13:59:19.515Z,47.85
2018-07-26T14:00:19.506Z,47.66
2018-07-26T14:01:19.512Z,47.63
2018-07-26T14:02:19.516Z,48.83
2018-07-26T14:03:19.522Z,47.85
2018-07-26T14:04:19.530Z,48.46
2018-07-26T14:05:19.533Z,47.00
2018-07-26T14:06:19.582Z,47.39
2018-07-26T14:07:19.539Z,47.68
2018-07-26T14:08:19.546Z,48.36
2018-07-26T14:09:19.551Z,47.56
2018-07-26T14:10:19.555Z,48.02
2018-07-26T14:11:19.559Z,50.87
2018-07-26T14:12:19.566Z,50.48
2018-07-26T14:13:19.572Z,48.24
2018-07-26T14:14:19.580Z,48.54
2018-07-26T14:15:19.603Z,47.46
2018-07-26T14:16:19.592Z,48.24
2018-07-26T14:17:19.594Z,48.41
2018-07-26T14:18:19.601Z,48.93
2018-07-26T14:19:19.601Z,48.02
2018-07-26T14:20:19.599Z,47.44
2018-07-26T14:21:19.614Z,48.51
2018-07-26T14:22:19.635Z,47.83
2018-07-26T14:23:19.620Z,47.53
2018-07-26T14:24:19.640Z,47.56
2018-07-26T14:25:19.626Z,48.24
2018-07-26T14:26:19.639Z,48.61
2018-07-26T14:27:19.648Z,48.24
2018-07-26T14:28:19.647Z,49.49
2018-07-26T14:29:19.662Z,49.68
2018-07-26T14:30:19.656Z,48.80
2018-07-26T14:31:19.664Z,49.58
2018-07-26T14:32:19.683Z,49.17
2018-07-26T14:33:19.675Z,51.43
2018-07-26T14:34:19.677Z,49.10